createdAt,value
2023-02-23T00:00:27.946Z,16.8
2023-02-23T00:03:29.947Z,18.5
2023-02-23T00:06:31.952Z,17.8
2023-02-23T00:09:33.873Z,16.2
2023-02-23T00:12:35.818Z,22.6
2023-02-23T00:15:37.770Z,18
2023-02-23T00:18:39.731Z,17.1
2023-02-23T00:21:41.729Z,16.9
2023-02-23T00:24:43.681Z,16.7
2023-02-23T00:27:45.654Z,16.4
2023-02-23T00:30:47.648Z,19
2023-02-23T00:33:49.574Z,15.1
2023-02-23T00:36:51.664Z,17.5
2023-02-23T00:39:53.502Z,18.2
2023-02-23T00:42:55.497Z,15.9
2023-02-23T00:45:57.744Z,16.4
2023-02-23T00:48:59.419Z,19.4
2023-02-23T00:52:01.366Z,19
2023-02-23T00:55:03.340Z,17.1
2023-02-23T00:58:05.319Z,20.9
2023-02-23T01:01:07.370Z,18.5
2023-02-23T01:04:09.230Z,18.8
2023-02-23T01:07:11.180Z,17.3
2023-02-23T01:10:13.128Z,19.4
2023-02-23T01:13:15.097Z,17.3
2023-02-23T01:16:17.071Z,16.6
2023-02-23T01:19:19.023Z,16.8
2023-02-23T01:22:20.971Z,19.6
2023-02-23T01:25:22.951Z,18.6
2023-02-23T01:28:24.932Z,16
2023-02-23T01:31:27.025Z,20.3
2023-02-23T01:34:28.863Z,19
2023-02-23T01:37:30.826Z,18.1
2023-02-23T01:40:32.794Z,21.2
2023-02-23T01:43:34.760Z,20.1
2023-02-23T01:46:36.747Z,21.7
2023-02-23T01:49:38.674Z,22.4
2023-02-23T01:52:40.643Z,27.1
2023-02-23T01:55:42.626Z,21.5
2023-02-23T01:58:44.580Z,25.1
2023-02-23T02:01:46.621Z,22.6
2023-02-23T02:04:48.535Z,24.8
2023-02-23T02:07:50.485Z,22
2023-02-23T02:10:52.444Z,22.3
2023-02-23T02:13:54.398Z,21.3
2023-02-23T02:16:56.552Z,24.2
2023-02-23T02:19:58.309Z,24.4
2023-02-23T02:23:00.304Z,24.6
2023-02-23T02:26:02.249Z,27.5
2023-02-23T02:29:04.198Z,27.7
2023-02-23T02:32:06.214Z,25.6
2023-02-23T02:35:08.117Z,27.6
2023-02-23T02:38:10.090Z,29.8
2023-02-23T02:41:12.037Z,30.4
2023-02-23T02:44:14.009Z,27.4
2023-02-23T02:47:15.966Z,31.4
2023-02-23T02:50:17.921Z,31.3
2023-02-23T02:53:19.895Z,30.6
2023-02-23T02:56:21.865Z,31
2023-02-23T02:59:23.836Z,32.7
2023-02-23T03:02:25.804Z,29.7
2023-02-23T03:05:27.790Z,29.5
2023-02-23T03:08:29.763Z,25.1
2023-02-23T03:11:31.712Z,33.2
2023-02-23T03:14:33.662Z,33.7
2023-02-23T03:17:38.143Z,28.4
2023-02-23T03:20:37.601Z,27.1
2023-02-23T03:23:39.560Z,29.9
2023-02-23T03:26:41.512Z,26.4
2023-02-23T03:29:43.475Z,32.6
2023-02-23T03:32:45.451Z,27.1
2023-02-23T03:35:47.402Z,34.7
2023-02-23T03:38:49.385Z,30.4
2023-02-23T03:41:51.513Z,27.4
2023-02-23T03:44:53.312Z,28.3
2023-02-23T03:47:55.274Z,33.3
2023-02-23T03:50:57.296Z,28.3
2023-02-23T03:53:59.217Z,27.2
2023-02-23T03:57:01.169Z,29.8
2023-02-23T04:00:03.149Z,29.1
2023-02-23T04:03:05.088Z,30.1
2023-02-23T04:06:07.076Z,34.2
2023-02-23T04:09:09.031Z,32.9
2023-02-23T04:12:11.008Z,30.9
2023-02-23T04:15:12.987Z,28.9
2023-02-23T04:18:14.933Z,32.5
2023-02-23T04:21:17.315Z,28.6
2023-02-23T04:24:18.842Z,28.6
2023-02-23T04:27:20.815Z,29.6
2023-02-23T04:30:22.795Z,28.7
2023-02-23T04:33:24.739Z,31.4
2023-02-23T04:36:26.702Z,32.9
2023-02-23T04:39:28.665Z,36.4
2023-02-23T04:42:30.637Z,38.7
2023-02-23T04:45:32.599Z,37.1
2023-02-23T04:48:34.565Z,32.7
2023-02-23T04:51:36.530Z,31.1
2023-02-23T04:54:38.482Z,29
2023-02-23T04:57:40.454Z,37.4
2023-02-23T05:00:42.446Z,39.9
2023-02-23T05:03:44.385Z,43.6
2023-02-23T05:06:46.347Z,34.6
2023-02-23T05:09:48.315Z,33.1
2023-02-23T05:12:50.257Z,31.4
2023-02-23T05:15:52.258Z,34.7
2023-02-23T05:18:54.189Z,32.8
2023-02-23T05:21:56.162Z,33.6
2023-02-23T05:24:58.112Z,33.5
2023-02-23T05:28:00.097Z,31.8
2023-02-23T05:31:02.096Z,30
2023-02-23T05:34:03.983Z,32.2
2023-02-23T05:37:06.005Z,32
2023-02-23T05:40:08.141Z,32.8
2023-02-23T05:43:09.900Z,34.5
2023-02-23T05:46:11.895Z,34.4
2023-02-23T05:49:13.797Z,35.2
2023-02-23T05:52:15.803Z,33.4
2023-02-23T05:55:17.758Z,30.9
2023-02-23T05:58:19.731Z,35.4
2023-02-23T06:01:21.694Z,44.3
2023-02-23T06:04:23.631Z,33.3
2023-02-23T06:07:25.612Z,39
2023-02-23T06:10:27.817Z,33.3
2023-02-23T06:13:29.540Z,33
2023-02-23T06:16:31.563Z,31.2
2023-02-23T06:19:33.482Z,40.2
2023-02-23T06:22:35.422Z,35.6
2023-02-23T06:25:37.367Z,32.7
2023-02-23T06:28:39.313Z,42.7
2023-02-23T06:31:41.409Z,38
2023-02-23T06:34:43.260Z,47.5
2023-02-23T06:37:45.223Z,40
2023-02-23T06:40:47.188Z,39.2
2023-02-23T06:43:49.156Z,34.6
2023-02-23T06:46:51.176Z,35.6
2023-02-23T06:49:53.100Z,32.9
2023-02-23T06:52:55.064Z,32.9
2023-02-23T06:55:57.019Z,31.4
2023-02-23T06:58:58.988Z,37.2
2023-02-23T07:02:00.986Z,32.8
2023-02-23T07:05:03.130Z,39.3
2023-02-23T07:08:04.940Z,38.7
2023-02-23T07:11:06.900Z,41.1
2023-02-23T07:14:10.765Z,35.7
2023-02-23T07:17:12.552Z,33.8
2023-02-23T07:20:12.792Z,32.7
2023-02-23T07:23:14.753Z,35.6
2023-02-23T07:26:16.753Z,43.7
2023-02-23T07:29:18.685Z,36.5
2023-02-23T07:32:20.768Z,42.5
2023-02-23T07:35:22.591Z,35.7
2023-02-23T07:38:24.560Z,41.4
2023-02-23T07:41:26.517Z,36
2023-02-23T07:44:28.472Z,36.4
2023-02-23T07:47:30.467Z,39.8
2023-02-23T07:50:32.379Z,40.8
2023-02-23T07:53:34.401Z,34.3
2023-02-23T07:56:36.344Z,37.7
2023-02-23T07:59:38.308Z,35.1
2023-02-23T08:02:40.270Z,37.3
2023-02-23T08:05:42.220Z,35.3
2023-02-23T08:08:44.203Z,35.6
2023-02-23T08:11:46.177Z,37.7
2023-02-23T08:14:48.139Z,33.1
2023-02-23T08:17:50.106Z,34.5
2023-02-23T08:20:52.080Z,32.2
2023-02-23T08:23:54.063Z,31.6
2023-02-23T08:26:56.011Z,32.2
2023-02-23T08:29:57.973Z,34
2023-02-23T08:32:59.944Z,32.4
2023-02-23T08:36:01.899Z,30.4
2023-02-23T08:39:03.891Z,33.3
2023-02-23T08:42:05.844Z,32.6
2023-02-23T08:45:08.669Z,36.8
2023-02-23T08:48:09.789Z,33.8
2023-02-23T08:51:11.750Z,30.3
2023-02-23T08:54:13.726Z,37.1
2023-02-23T08:57:15.672Z,33.5
2023-02-23T09:00:17.644Z,33.5
2023-02-23T09:03:19.596Z,28.9
2023-02-23T09:06:21.540Z,32.3
2023-02-23T09:09:23.507Z,31.8
2023-02-23T09:12:25.484Z,31.5
2023-02-23T09:15:27.432Z,30.6
2023-02-23T09:18:29.397Z,32
2023-02-23T09:21:31.369Z,31
2023-02-23T09:24:33.373Z,29.8
2023-02-23T09:27:35.370Z,31.3
2023-02-23T09:30:37.362Z,32.8
2023-02-23T09:33:39.316Z,29.6
2023-02-23T09:36:41.260Z,35
2023-02-23T09:39:43.299Z,31.6
2023-02-23T09:42:45.208Z,29.6
2023-02-23T09:45:47.231Z,34.3
2023-02-23T09:48:49.092Z,30.3
2023-02-23T09:51:51.060Z,29.8
2023-02-23T09:54:53.013Z,31.8
2023-02-23T09:57:54.993Z,25.1
2023-02-23T10:00:56.949Z,31.1
2023-02-23T10:03:59.153Z,28.4
2023-02-23T10:07:00.893Z,27.4
2023-02-23T10:10:02.892Z,29
2023-02-23T10:13:04.833Z,31
2023-02-23T10:16:06.868Z,27.4
2023-02-23T10:19:08.757Z,25.3
2023-02-23T10:22:10.712Z,25.9
2023-02-23T10:25:12.678Z,24.4
2023-02-23T10:28:14.706Z,24
2023-02-23T10:31:16.949Z,21.6
2023-02-23T10:34:18.588Z,22.5
2023-02-23T10:37:20.574Z,20.9
2023-02-23T10:40:22.533Z,19.9
2023-02-23T10:43:24.630Z,22.2
2023-02-23T10:46:26.513Z,22.9
2023-02-23T10:49:28.964Z,19.9
2023-02-23T10:52:31.682Z,18.4
2023-02-23T10:55:32.342Z,18.8
2023-02-23T10:58:34.325Z,18.6
2023-02-23T11:01:36.487Z,18.4
2023-02-23T11:04:38.337Z,19.9
2023-02-23T11:07:40.280Z,20
2023-02-23T11:10:42.262Z,18.4
2023-02-23T11:13:44.252Z,17.7
2023-02-23T11:16:46.200Z,17
2023-02-23T11:19:48.132Z,16.2
2023-02-23T11:22:50.114Z,16.2
2023-02-23T11:25:52.067Z,15.1
2023-02-23T11:28:54.043Z,15
2023-02-23T11:31:56.145Z,17.2
2023-02-23T11:34:57.982Z,20.6
2023-02-23T11:37:59.961Z,17.3
2023-02-23T11:41:01.953Z,16.9
2023-02-23T11:44:05.981Z,14.7
2023-02-23T11:47:05.930Z,16.1
2023-02-23T11:50:07.812Z,13.9
2023-02-23T11:53:09.772Z,14.5
2023-02-23T11:56:11.784Z,12.6
2023-02-23T11:59:13.759Z,13.6
2023-02-23T12:02:15.711Z,13
2023-02-23T12:05:17.755Z,14.5
2023-02-23T12:08:19.641Z,12.8
2023-02-23T12:11:21.644Z,11.5
2023-02-23T12:14:23.588Z,11.9
2023-02-23T12:17:25.541Z,10.8
2023-02-23T12:20:27.519Z,10.1
2023-02-23T12:23:29.480Z,9.6
2023-02-23T12:26:31.435Z,10.9
2023-02-23T12:29:33.388Z,8.1
2023-02-23T12:32:35.359Z,9
2023-02-23T12:35:37.349Z,10.3
2023-02-23T12:38:39.320Z,9.7
2023-02-23T12:41:41.248Z,11.2
2023-02-23T12:44:43.262Z,9.6
2023-02-23T12:47:45.175Z,9.9
2023-02-23T12:50:47.164Z,10.5
2023-02-23T12:53:49.101Z,11.7
2023-02-23T12:56:51.073Z,10.8
2023-02-23T12:59:53.035Z,9
2023-02-23T13:02:55.025Z,8.6
2023-02-23T13:05:56.968Z,9.5
2023-02-23T13:08:58.936Z,9.3
2023-02-23T13:12:00.901Z,7
2023-02-23T13:15:02.833Z,7
2023-02-23T13:18:04.788Z,6.6
2023-02-23T13:21:06.771Z,5.9
2023-02-23T13:24:08.702Z,5
2023-02-23T13:27:10.664Z,5.1
2023-02-23T13:30:12.625Z,5
2023-02-23T13:33:14.626Z,5.5
2023-02-23T13:36:16.571Z,4.9
2023-02-23T13:39:19.552Z,4.8
2023-02-23T13:42:20.492Z,4.9
2023-02-23T13:45:22.474Z,4.6
2023-02-23T13:48:24.427Z,3.7
2023-02-23T13:51:26.409Z,3.8
2023-02-23T13:54:28.356Z,4.2
2023-02-23T13:57:30.320Z,4.8
2023-02-23T14:00:32.332Z,4.2
2023-02-23T14:03:34.308Z,4.4
2023-02-23T14:06:36.218Z,3.6
2023-02-23T14:09:38.200Z,4.8
2023-02-23T14:12:40.172Z,4.9
2023-02-23T14:15:42.134Z,4.8
2023-02-23T14:18:44.094Z,4.9
2023-02-23T14:21:46.069Z,5
2023-02-23T14:24:48.064Z,5.4
2023-02-23T14:27:50.016Z,4.6
2023-02-23T14:30:52.065Z,4.2
2023-02-23T14:33:53.934Z,5.5
2023-02-23T14:36:55.888Z,4.4
2023-02-23T14:39:57.847Z,4.7
2023-02-23T14:42:59.877Z,6.8
2023-02-23T14:46:01.815Z,6
2023-02-23T14:49:03.749Z,7.7
2023-02-23T14:52:05.739Z,7.1
2023-02-23T14:55:07.670Z,6.6
2023-02-23T14:58:09.640Z,7.3
2023-02-23T15:01:11.605Z,8
2023-02-23T15:04:13.574Z,6.8
2023-02-23T15:07:16.715Z,8.9
2023-02-23T15:10:17.500Z,8.3
2023-02-23T15:13:19.471Z,8.6
2023-02-23T15:16:21.525Z,9
2023-02-23T15:19:23.446Z,7.3
2023-02-23T15:22:25.415Z,8.3
2023-02-23T15:25:27.370Z,7.7
2023-02-23T15:28:29.342Z,8.2
2023-02-23T15:31:31.334Z,8.2
2023-02-23T15:34:33.256Z,6.8
2023-02-23T15:37:35.233Z,8.6
2023-02-23T15:40:37.221Z,7.3
2023-02-23T15:43:39.145Z,8.1
2023-02-23T15:46:41.124Z,10.3
2023-02-23T15:49:43.140Z,8.8
2023-02-23T15:52:45.083Z,8.7
2023-02-23T15:55:47.093Z,9.3
2023-02-23T15:58:56.235Z,10.5
2023-02-23T16:01:50.980Z,9.3
2023-02-23T16:04:52.930Z,7.9
2023-02-23T16:07:54.904Z,7.5
2023-02-23T16:10:56.857Z,7.2
2023-02-23T16:13:58.833Z,7.2
2023-02-23T16:17:11.073Z,6.2
2023-02-23T16:20:02.810Z,6.4
2023-02-23T16:23:04.717Z,6.6
2023-02-23T16:26:06.738Z,5.9
2023-02-23T16:29:08.662Z,6.6
2023-02-23T16:32:10.736Z,7.6
2023-02-23T16:35:12.577Z,5.5
2023-02-23T16:38:14.528Z,5.8
2023-02-23T16:41:16.508Z,6.4
2023-02-23T16:44:18.465Z,5.9
2023-02-23T16:47:20.428Z,7
2023-02-23T16:50:22.498Z,5.7
2023-02-23T16:53:24.343Z,7
2023-02-23T16:56:26.314Z,6.2
2023-02-23T16:59:28.276Z,6.7
2023-02-23T17:02:30.257Z,6.5
2023-02-23T17:05:32.200Z,5.2
2023-02-23T17:08:34.149Z,6.1
2023-02-23T17:11:36.133Z,5.9
2023-02-23T17:14:38.110Z,5.5
2023-02-23T17:17:40.064Z,5.3
2023-02-23T17:20:42.002Z,6.2
2023-02-23T17:23:44.003Z,8.9
2023-02-23T17:26:45.942Z,9
2023-02-23T17:29:47.920Z,7.7
2023-02-23T17:32:50.119Z,7.7
2023-02-23T17:35:51.847Z,8.1
2023-02-23T17:38:53.786Z,7.1
2023-02-23T17:41:55.861Z,7.6
2023-02-23T17:44:57.718Z,8
2023-02-23T17:47:59.952Z,8.5
2023-02-23T17:51:01.662Z,7.9
2023-02-23T17:54:03.618Z,9.1
2023-02-23T17:57:05.613Z,7.3
2023-02-23T18:00:07.583Z,8.6
2023-02-23T18:03:09.598Z,9.5
2023-02-23T18:06:11.542Z,8.7
2023-02-23T18:09:13.489Z,9.9
2023-02-23T18:12:15.436Z,9.6
2023-02-23T18:15:17.380Z,11.2
2023-02-23T18:18:19.387Z,11.6
2023-02-23T18:21:21.334Z,12.2
2023-02-23T18:24:23.290Z,13.1
2023-02-23T18:27:25.257Z,12.8
2023-02-23T18:30:27.317Z,15.3
2023-02-23T18:33:29.194Z,15.5
2023-02-23T18:36:31.138Z,15.1
2023-02-23T18:39:33.088Z,15.1
2023-02-23T18:42:35.076Z,14.5
2023-02-23T18:45:37.024Z,12.9
2023-02-23T18:48:39.020Z,12.2
2023-02-23T18:51:42.389Z,11
2023-02-23T18:54:42.960Z,12.6
2023-02-23T18:57:44.924Z,12.3
2023-02-23T19:00:46.937Z,14.4
2023-02-23T19:03:48.854Z,13.1
2023-02-23T19:06:50.780Z,13
2023-02-23T19:09:52.751Z,15
2023-02-23T19:12:54.701Z,13.5
2023-02-23T19:15:56.704Z,13.2
2023-02-23T19:18:58.628Z,13.3
2023-02-23T19:22:00.586Z,12.5
2023-02-23T19:25:02.546Z,12.3
2023-02-23T19:28:04.486Z,12.9
2023-02-23T19:31:06.475Z,12.7
2023-02-23T19:34:08.414Z,12
2023-02-23T19:37:10.356Z,11.9
2023-02-23T19:40:12.356Z,12.1
2023-02-23T19:43:14.285Z,13.3
2023-02-23T19:46:16.255Z,10.9
2023-02-23T19:49:18.210Z,10.3
2023-02-23T19:52:20.170Z,9.7
2023-02-23T19:55:22.141Z,11.1
2023-02-23T19:58:24.092Z,10.5
2023-02-23T20:01:26.053Z,9.5
2023-02-23T20:04:28.013Z,9.3
2023-02-23T20:07:30.037Z,12.4
2023-02-23T20:10:31.964Z,12.4
2023-02-23T20:13:33.918Z,11.7
2023-02-23T20:16:35.948Z,11.9
2023-02-23T20:19:37.829Z,11.9
2023-02-23T20:22:39.784Z,12.7
2023-02-23T20:25:41.757Z,12.3
2023-02-23T20:28:43.712Z,13
2023-02-23T20:31:45.730Z,11.3
2023-02-23T20:34:47.639Z,10.4
2023-02-23T20:37:49.591Z,12.5
2023-02-23T20:40:51.567Z,9.6
2023-02-23T20:43:53.545Z,9.3
2023-02-23T20:46:55.476Z,12.2
2023-02-23T20:49:57.440Z,10.9
2023-02-23T20:52:59.409Z,10
2023-02-23T20:56:01.386Z,11.5
2023-02-23T20:59:03.333Z,9.2
2023-02-23T21:02:05.326Z,10.6
2023-02-23T21:05:07.266Z,9.5
2023-02-23T21:08:09.226Z,9.4
2023-02-23T21:11:11.188Z,9.6
2023-02-23T21:14:13.164Z,9.8
2023-02-23T21:17:15.151Z,12
2023-02-23T21:20:18.588Z,11.4
2023-02-23T21:23:19.043Z,10.2
2023-02-23T21:26:20.997Z,10.4
2023-02-23T21:29:22.952Z,10.1
2023-02-23T21:32:25.002Z,13.5
2023-02-23T21:35:26.887Z,13.8
2023-02-23T21:38:28.862Z,14.2
2023-02-23T21:41:30.819Z,13.3
2023-02-23T21:44:32.777Z,15.3
2023-02-23T21:47:34.763Z,15.3
2023-02-23T21:50:36.725Z,16.7
2023-02-23T21:53:38.688Z,16.7
2023-02-23T21:56:40.668Z,15.2
2023-02-23T21:59:42.607Z,15.7
2023-02-23T22:02:44.623Z,15.6
2023-02-23T22:05:46.517Z,14.5
2023-02-23T22:08:48.506Z,14.9
2023-02-23T22:11:50.452Z,14.4
2023-02-23T22:14:52.405Z,15.4
2023-02-23T22:17:54.392Z,14.1
2023-02-23T22:20:56.330Z,15.9
2023-02-23T22:23:58.293Z,15.5
2023-02-23T22:27:00.257Z,16.5
2023-02-23T22:30:02.238Z,17.1
2023-02-23T22:33:04.301Z,15.3
2023-02-23T22:36:06.141Z,16.7
2023-02-23T22:39:08.075Z,16.3
2023-02-23T22:42:10.043Z,15
2023-02-23T22:45:12.056Z,15.6
2023-02-23T22:48:13.961Z,15.7
2023-02-23T22:51:15.942Z,15
2023-02-23T22:54:17.891Z,14.5
2023-02-23T22:57:19.861Z,14.2
2023-02-23T23:00:21.827Z,13.2
2023-02-23T23:03:23.819Z,14.4
2023-02-23T23:06:25.764Z,14.5
2023-02-23T23:09:27.724Z,13.9
2023-02-23T23:12:29.684Z,14.5
2023-02-23T23:15:31.688Z,12.5
2023-02-23T23:18:33.608Z,13.4
2023-02-23T23:21:35.563Z,12.9
2023-02-23T23:24:37.528Z,13.8
2023-02-23T23:27:39.481Z,12.9
2023-02-23T23:30:41.443Z,13.5
2023-02-23T23:33:43.398Z,13.8
2023-02-23T23:36:45.354Z,11.8
2023-02-23T23:39:47.322Z,12.7
2023-02-23T23:42:49.285Z,12.3
2023-02-23T23:45:51.315Z,13.4
2023-02-23T23:48:53.207Z,12.9
2023-02-23T23:51:55.177Z,13.1
2023-02-23T23:54:57.137Z,14.7
2023-02-23T23:57:59.093Z,12.4
